createdAt,value
2023-03-22T00:05:35.215Z,99835.11
2023-03-22T00:15:39.746Z,99815.52
2023-03-22T00:25:44.950Z,99811.08
2023-03-22T00:35:58.111Z,99814.88
2023-03-22T00:46:02.147Z,99815.25
2023-03-22T00:56:06.787Z,99813.45
2023-03-22T01:06:20.526Z,99805.91
2023-03-22T01:16:24.194Z,99799.64
2023-03-22T01:26:28.369Z,99787.09
2023-03-22T01:36:32.209Z,99770.58
2023-03-22T01:46:38.568Z,99766.70
2023-03-22T01:56:43.145Z,99744.80
2023-03-22T02:06:54.493Z,99728.46
2023-03-22T02:17:28.754Z,99714.69
2023-03-22T02:27:48.990Z,99714.48
2023-03-22T02:38:15.213Z,99710.02
2023-03-22T02:48:46.619Z,99702.55
2023-03-22T02:58:58.493Z,99695.85
2023-03-22T03:09:05.674Z,99693.60
2023-03-22T03:19:21.344Z,99690.30
2023-03-22T03:29:31.373Z,99689.27
2023-03-22T03:39:39.879Z,99692.83
2023-03-22T03:49:43.527Z,99693.60
2023-03-22T03:59:47.156Z,99686.20
2023-03-22T04:10:00.020Z,99667.83
2023-03-22T04:20:12.697Z,99673.58
2023-03-22T04:30:20.364Z,99664.45
2023-03-22T04:40:39.578Z,99666.24
2023-03-22T04:50:53.695Z,99674.35
2023-03-22T05:01:07.060Z,99668.23
2023-03-22T05:11:17.836Z,99668.30
2023-03-22T05:21:28.574Z,99663.05
2023-03-22T05:31:34.778Z,99653.21
2023-03-22T05:41:39.627Z,99637.42
2023-03-22T05:51:43.847Z,99634.97
2023-03-22T06:01:48.477Z,99628.90
2023-03-22T06:11:58.797Z,99622.38
2023-03-22T06:22:02.704Z,99623.56
2023-03-22T06:32:08.507Z,99624.11
2023-03-22T06:42:12.609Z,99618.95
2023-03-22T06:53:16.564Z,99610.61
2023-03-22T07:03:20.571Z,99602.04
2023-03-22T07:13:46.783Z,99600.58
2023-03-22T07:23:53.979Z,99596.50
2023-03-22T07:33:59.422Z,99589.75
2023-03-22T07:44:17.624Z,99585.77
2023-03-22T07:54:35.979Z,99579.34
2023-03-22T08:04:41.908Z,99577.81
2023-03-22T08:15:09.840Z,99564.64
2023-03-22T08:25:14.558Z,99554.11
2023-03-22T08:35:21.526Z,99542.92
2023-03-22T08:45:27.613Z,99540.73
2023-03-22T08:55:45.018Z,99528.03
2023-03-22T09:05:51.250Z,99524.58
2023-03-22T09:15:56.883Z,99520.52
2023-03-22T09:26:08.914Z,99511.29
2023-03-22T09:36:13.551Z,99503.97
2023-03-22T09:46:26.031Z,99504.58
2023-03-22T09:56:32.201Z,99503.52
2023-03-22T10:06:37.753Z,99511.43
2023-03-22T10:16:44.026Z,99503.98
2023-03-22T10:26:49.880Z,99499.22
2023-03-22T10:36:54.003Z,99493.69
2023-03-22T10:47:07.492Z,99486.50
2023-03-22T10:57:11.220Z,99481.76
2023-03-22T11:07:27.428Z,99475.98
2023-03-22T11:17:33.337Z,99469.98
2023-03-22T11:27:37.589Z,99466.05
2023-03-22T11:37:47.836Z,99454.52
2023-03-22T11:47:53.553Z,99446.77
2023-03-22T11:57:58.965Z,99452.25
2023-03-22T12:08:31.182Z,99448.66
2023-03-22T12:18:41.693Z,99443.28
2023-03-22T12:28:56.978Z,99439.86
2023-03-22T12:39:05.380Z,99429.56
2023-03-22T12:49:42.595Z,99422.18
2023-03-22T12:59:50.217Z,99417.45
2023-03-22T13:09:55.919Z,99409.86
2023-03-22T13:20:08.084Z,99410.63
2023-03-22T13:30:23.803Z,99406.30
2023-03-22T13:40:39.866Z,99412.34
2023-03-22T13:50:48.522Z,99408.09
2023-03-22T14:00:56.438Z,99404.08
2023-03-22T14:11:30.076Z,99393.64
2023-03-22T14:21:39.588Z,99377.14
